createdAt,value
2022-09-01T00:00:30.213Z,2.90
2022-09-01T00:03:04.824Z,2.70
2022-09-01T00:05:33.387Z,2.40
2022-09-01T00:08:01.773Z,2.20
2022-09-01T00:10:30.405Z,2.60
2022-09-01T00:12:58.763Z,2.70
2022-09-01T00:15:27.265Z,2.50
2022-09-01T00:17:56.293Z,2.60
2022-09-01T00:20:24.641Z,2.60
2022-09-01T00:22:52.936Z,2.30
2022-09-01T00:25:22.145Z,2.50
2022-09-01T00:27:51.856Z,2.30
2022-09-01T00:30:20.751Z,2.10
2022-09-01T00:32:49.097Z,2.30
2022-09-01T00:35:19.919Z,2.30
2022-09-01T00:37:48.223Z,2.30
2022-09-01T00:40:18.245Z,2.60
2022-09-01T00:42:49.196Z,2.30
2022-09-01T00:45:19.659Z,1.90
2022-09-01T00:47:50.074Z,2.20
2022-09-01T00:50:20.962Z,2.20
2022-09-01T00:52:55.633Z,1.70
2022-09-01T00:55:30.130Z,1.90
2022-09-01T00:58:03.794Z,1.80
2022-09-01T01:00:34.621Z,2.00
2022-09-01T01:03:02.979Z,1.90
2022-09-01T01:05:39.644Z,1.80
2022-09-01T01:08:12.030Z,1.80
2022-09-01T01:10:42.428Z,1.70
2022-09-01T01:13:14.302Z,1.60
2022-09-01T01:15:44.369Z,1.80
2022-09-01T01:18:14.504Z,1.60
2022-09-01T01:21:25.377Z,1.70
2022-09-01T01:24:02.305Z,1.70
2022-09-01T01:26:31.019Z,1.80
2022-09-01T01:29:01.824Z,1.80
2022-09-01T01:31:30.572Z,1.70
2022-09-01T01:33:59.499Z,1.60
2022-09-01T01:36:32.834Z,1.50
2022-09-01T01:39:05.667Z,1.40
2022-09-01T01:41:36.393Z,1.60
2022-09-01T01:44:05.918Z,1.60
2022-09-01T01:46:36.847Z,1.40
2022-09-01T01:49:05.232Z,1.40
2022-09-01T01:51:34.683Z,1.40
2022-09-01T01:54:06.244Z,1.50
2022-09-01T01:56:40.045Z,1.30
2022-09-01T01:59:11.939Z,1.40
2022-09-01T02:01:40.858Z,1.30
2022-09-01T02:04:11.546Z,1.40
2022-09-01T02:06:46.142Z,1.60
2022-09-01T02:09:17.265Z,1.50
2022-09-01T02:11:47.025Z,1.40
2022-09-01T02:14:16.405Z,1.40
2022-09-01T02:16:44.671Z,1.20
2022-09-01T02:19:13.030Z,1.30
2022-09-01T02:21:49.210Z,1.40
2022-09-01T02:24:17.577Z,1.30
2022-09-01T02:26:49.156Z,1.40
2022-09-01T02:29:26.750Z,1.30
2022-09-01T02:31:56.992Z,1.30
2022-09-01T02:34:27.948Z,1.30
2022-09-01T02:36:57.957Z,1.20
2022-09-01T02:39:34.699Z,1.30
2022-09-01T02:42:03.033Z,1.40
2022-09-01T02:44:32.376Z,1.40
2022-09-01T02:47:02.192Z,1.30
2022-09-01T02:49:31.703Z,1.40
2022-09-01T02:52:02.106Z,1.50
2022-09-01T02:54:32.711Z,1.40
2022-09-01T02:57:02.060Z,1.60
2022-09-01T02:59:30.760Z,1.40
2022-09-01T03:01:59.038Z,1.50
2022-09-01T03:04:27.598Z,1.30
2022-09-01T03:06:59.090Z,1.50
2022-09-01T03:09:28.359Z,1.30
2022-09-01T03:11:57.387Z,1.40
2022-09-01T03:14:26.175Z,1.40
2022-09-01T03:16:55.058Z,1.40
2022-09-01T03:19:24.132Z,1.70
2022-09-01T03:21:52.420Z,1.40
2022-09-01T03:24:22.241Z,1.50
2022-09-01T03:26:51.098Z,1.30
2022-09-01T03:29:19.738Z,1.30
2022-09-01T03:31:49.332Z,1.40
2022-09-01T03:34:21.008Z,1.60
2022-09-01T03:36:54.712Z,1.30
2022-09-01T03:39:23.009Z,1.60
2022-09-01T03:41:51.327Z,1.60
2022-09-01T03:44:19.626Z,1.30
2022-09-01T03:46:48.059Z,1.50
2022-09-01T03:49:25.238Z,1.50
2022-09-01T03:51:54.159Z,1.50
2022-09-01T03:54:28.578Z,1.60
2022-09-01T03:57:00.254Z,1.50
2022-09-01T03:59:30.279Z,1.50
2022-09-01T04:02:00.540Z,1.80
2022-09-01T04:04:33.133Z,1.80
2022-09-01T04:07:01.765Z,1.80
2022-09-01T04:09:30.041Z,1.80
2022-09-01T04:11:58.568Z,1.70
2022-09-01T04:14:29.222Z,2.60
2022-09-01T04:17:17.970Z,2.20
2022-09-01T04:19:47.741Z,2.40
2022-09-01T04:22:18.001Z,1.80
2022-09-01T04:24:47.053Z,1.70
2022-09-01T04:27:18.359Z,1.50
2022-09-01T04:29:48.003Z,1.50
2022-09-01T04:32:17.231Z,1.90
2022-09-01T04:34:45.564Z,1.80
2022-09-01T04:37:21.476Z,1.80
2022-09-01T04:39:56.635Z,1.60
2022-09-01T04:42:29.522Z,1.70
2022-09-01T04:45:03.145Z,1.50
2022-09-01T04:47:42.345Z,1.70
2022-09-01T04:50:17.960Z,1.80
2022-09-01T04:52:48.054Z,2.10
2022-09-01T04:55:19.052Z,2.10
2022-09-01T04:57:49.804Z,2.00
2022-09-01T05:00:24.466Z,2.10
2022-09-01T05:03:05.049Z,2.00
2022-09-01T05:05:43.023Z,1.90
2022-09-01T05:08:23.851Z,1.90
2022-09-01T05:10:55.976Z,1.70
2022-09-01T05:13:24.941Z,1.60
2022-09-01T05:16:13.526Z,1.60
2022-09-01T05:18:48.031Z,1.90
2022-09-01T05:21:22.523Z,2.20
2022-09-01T05:23:52.112Z,1.80
2022-09-01T05:26:26.652Z,1.70
2022-09-01T05:29:01.624Z,1.70
2022-09-01T05:31:35.138Z,2.00
2022-09-01T05:34:05.072Z,1.70
2022-09-01T05:36:33.822Z,1.90
2022-09-01T05:39:02.749Z,2.00
2022-09-01T05:41:31.843Z,2.20
2022-09-01T05:44:02.622Z,2.20
2022-09-01T05:46:31.150Z,2.50
2022-09-01T05:48:59.575Z,2.30
2022-09-01T05:51:44.377Z,2.10
2022-09-01T05:54:15.152Z,1.90
2022-09-01T05:56:45.229Z,1.90
2022-09-01T05:59:23.823Z,2.00
2022-09-01T06:01:55.250Z,1.90
2022-09-01T06:04:25.835Z,2.40
2022-09-01T06:07:05.677Z,2.30
2022-09-01T06:09:45.421Z,2.50
2022-09-01T06:12:19.006Z,2.60
2022-09-01T06:14:48.991Z,2.40
2022-09-01T06:19:49.253Z,2.60
2022-09-01T06:22:17.763Z,2.20
2022-09-01T06:24:49.637Z,2.20
2022-09-01T06:27:21.989Z,2.40
2022-09-01T06:29:53.888Z,2.20
2022-09-01T06:32:26.221Z,2.20
2022-09-01T06:34:54.921Z,2.20
2022-09-01T06:37:23.383Z,2.50
2022-09-01T06:39:51.987Z,2.30
2022-09-01T06:42:20.251Z,1.80
2022-09-01T06:44:48.542Z,1.80
2022-09-01T06:47:16.850Z,1.90
2022-09-01T06:49:45.191Z,1.70
2022-09-01T06:52:14.027Z,1.70
2022-09-01T06:54:44.260Z,1.80
2022-09-01T07:00:01.612Z,1.80
2022-09-01T07:02:33.731Z,1.80
2022-09-01T07:05:03.049Z,1.70
2022-09-01T07:10:28.198Z,2.10
2022-09-01T07:13:06.879Z,1.50
2022-09-01T07:18:31.410Z,1.30
2022-09-01T07:24:10.318Z,1.90
2022-09-01T07:26:48.539Z,17.40
2022-09-01T07:29:22.252Z,11.30
2022-09-01T07:31:51.974Z,13.20
2022-09-01T07:34:39.927Z,4.30
2022-09-01T07:38:47.735Z,1.70
2022-09-01T07:39:57.131Z,1.80
2022-09-01T07:42:30.263Z,1.50
2022-09-01T07:45:26.211Z,1.90
2022-09-01T07:47:55.719Z,1.80
2022-09-01T07:53:22.706Z,1.20
2022-09-01T07:55:53.307Z,1.90
2022-09-01T07:58:24.798Z,2.00
2022-09-01T08:00:54.808Z,1.80
2022-09-01T08:03:25.789Z,2.00
2022-09-01T08:05:58.017Z,1.90
2022-09-01T08:08:29.429Z,1.70
2022-09-01T08:11:05.318Z,2.00
2022-09-01T08:13:41.187Z,1.90
2022-09-01T08:16:19.740Z,2.10
2022-09-01T08:18:49.677Z,3.10
2022-09-01T08:23:48.273Z,3.60
2022-09-01T08:26:19.151Z,2.50
2022-09-01T08:28:55.041Z,2.20
2022-09-01T08:31:26.196Z,1.80
2022-09-01T08:33:59.613Z,1.60
2022-09-01T08:36:27.962Z,1.60
2022-09-01T08:38:56.334Z,1.60
2022-09-01T08:42:06.189Z,1.20
2022-09-01T08:44:54.904Z,1.00
2022-09-01T08:47:43.621Z,1.20
2022-09-01T08:50:12.468Z,1.50
2022-09-01T08:52:56.980Z,1.10
2022-09-01T08:55:35.493Z,1.20
2022-09-01T08:58:05.102Z,1.70
2022-09-01T09:00:54.877Z,1.90
2022-09-01T09:03:42.924Z,1.70
2022-09-01T09:06:55.189Z,1.40
2022-09-01T09:09:35.337Z,0.90
2022-09-01T09:12:16.522Z,0.70
2022-09-01T09:15:00.977Z,1.00
2022-09-01T09:17:36.985Z,0.80
2022-09-01T09:20:06.836Z,0.90
2022-09-01T09:22:35.232Z,0.80
2022-09-01T09:25:19.391Z,0.70
2022-09-01T09:28:00.470Z,0.80
2022-09-01T09:30:31.606Z,0.70
2022-09-01T09:35:55.594Z,0.80
2022-09-01T09:38:29.526Z,0.60
2022-09-01T09:44:23.330Z,0.70
2022-09-01T09:46:52.087Z,0.70
2022-09-01T09:49:36.816Z,0.70
2022-09-01T09:52:09.242Z,0.70
2022-09-01T09:54:40.803Z,0.70
2022-09-01T09:57:09.054Z,0.60
2022-09-01T10:00:01.152Z,0.50
2022-09-01T10:02:37.121Z,0.70
2022-09-01T10:05:43.414Z,0.80
2022-09-01T10:11:08.137Z,0.60
2022-09-01T10:13:36.997Z,0.80
2022-09-01T10:16:12.982Z,0.70
2022-09-01T10:18:45.311Z,0.80
2022-09-01T10:21:24.410Z,0.80
2022-09-01T10:23:53.974Z,0.80
2022-09-01T10:26:25.781Z,0.60
2022-09-01T10:29:06.592Z,0.80
2022-09-01T10:31:37.240Z,0.80
2022-09-01T10:34:08.083Z,0.70
2022-09-01T10:36:39.500Z,0.70
2022-09-01T10:39:12.760Z,0.80
2022-09-01T10:41:47.598Z,0.90
2022-09-01T10:44:24.569Z,0.80
2022-09-01T10:46:59.965Z,0.70
2022-09-01T10:49:33.297Z,1.00
2022-09-01T10:52:07.582Z,0.70
2022-09-01T10:57:27.878Z,0.70
2022-09-01T11:00:36.177Z,0.90
2022-09-01T11:06:13.201Z,0.80
2022-09-01T11:11:32.122Z,0.60
2022-09-01T11:14:01.637Z,0.70
2022-09-01T11:16:49.325Z,0.70
2022-09-01T11:19:21.984Z,0.60
2022-09-01T11:22:09.437Z,0.60
2022-09-01T11:24:53.428Z,0.70
2022-09-01T11:27:51.061Z,0.60
2022-09-01T11:30:31.210Z,0.50
2022-09-01T11:33:31.458Z,0.50
2022-09-01T11:36:07.246Z,0.60
2022-09-01T11:39:03.124Z,0.60
2022-09-01T11:41:34.282Z,0.50
2022-09-01T11:44:11.954Z,0.50
2022-09-01T11:46:43.559Z,0.60
2022-09-01T11:49:30.147Z,0.50
2022-09-01T11:52:01.333Z,0.50
2022-09-01T11:54:38.228Z,0.60
2022-09-01T11:57:25.565Z,0.40
2022-09-01T11:59:55.334Z,0.60
2022-09-01T12:02:29.242Z,0.60
2022-09-01T12:04:58.131Z,0.40
2022-09-01T12:07:45.226Z,0.70
2022-09-01T12:10:27.671Z,0.50
2022-09-01T12:13:21.233Z,0.60
2022-09-01T12:16:18.524Z,0.70
2022-09-01T12:18:51.697Z,0.60
2022-09-01T12:21:24.674Z,0.70
2022-09-01T12:23:54.256Z,0.60
2022-09-01T12:26:29.413Z,0.60
2022-09-01T12:28:57.940Z,0.50
2022-09-01T12:31:27.027Z,0.80
2022-09-01T12:33:56.848Z,0.70
2022-09-01T12:36:27.963Z,0.70
2022-09-01T12:39:17.561Z,0.50
2022-09-01T12:44:51.740Z,0.50
2022-09-01T12:47:38.010Z,0.60
2022-09-01T12:50:07.962Z,0.60
2022-09-01T12:52:45.070Z,0.70
2022-09-01T12:58:10.500Z,0.60
2022-09-01T13:00:59.257Z,0.70
2022-09-01T13:03:29.989Z,0.90
2022-09-01T13:06:00.964Z,1.00
2022-09-01T13:08:33.401Z,0.80
2022-09-01T13:11:11.520Z,0.90
2022-09-01T13:13:40.319Z,0.80
2022-09-01T13:16:13.286Z,0.60
2022-09-01T13:21:34.770Z,0.60
2022-09-01T13:24:05.602Z,0.80
2022-09-01T13:26:34.036Z,0.70
2022-09-01T13:29:02.312Z,0.80
2022-09-01T13:31:32.037Z,0.70
2022-09-01T13:34:22.980Z,0.80
2022-09-01T13:36:52.443Z,0.70
2022-09-01T13:39:22.860Z,0.80
2022-09-01T13:41:51.464Z,0.80
2022-09-01T13:44:20.029Z,0.60
2022-09-01T13:50:05.380Z,0.70
2022-09-01T13:52:25.489Z,0.50
2022-09-01T13:54:54.304Z,0.40
2022-09-01T13:57:22.714Z,0.50
2022-09-01T13:59:52.027Z,0.60
2022-09-01T14:02:20.858Z,0.70
2022-09-01T14:04:56.936Z,0.70
2022-09-01T14:07:25.473Z,0.80
2022-09-01T14:09:55.352Z,0.50
2022-09-01T14:12:23.634Z,0.50
2022-09-01T14:17:40.518Z,0.50
2022-09-01T14:20:13.138Z,0.70
2022-09-01T14:22:42.164Z,1.20
2022-09-01T14:25:10.979Z,0.70
2022-09-01T14:27:39.318Z,0.60
2022-09-01T14:30:10.890Z,0.50
2022-09-01T14:32:39.493Z,1.10
2022-09-01T14:35:08.369Z,0.70
2022-09-01T14:37:45.963Z,2.40
2022-09-01T14:40:16.775Z,1.80
2022-09-01T14:42:49.615Z,1.10
2022-09-01T14:45:21.152Z,2.00
2022-09-01T14:47:51.553Z,0.80
2022-09-01T14:50:22.940Z,0.60
2022-09-01T14:52:55.372Z,0.60
2022-09-01T14:55:26.109Z,2.00
2022-09-01T14:57:55.442Z,3.00
2022-09-01T15:00:28.011Z,1.40
2022-09-01T15:02:56.668Z,3.10
2022-09-01T15:05:25.908Z,1.00
2022-09-01T15:07:54.828Z,0.60
2022-09-01T15:10:26.065Z,0.70
2022-09-01T15:12:57.783Z,0.50
2022-09-01T15:15:28.471Z,0.60
2022-09-01T15:17:57.561Z,0.80
2022-09-01T15:20:44.864Z,0.60
2022-09-01T15:23:19.189Z,0.50
2022-09-01T15:25:49.370Z,0.60
2022-09-01T15:28:18.107Z,0.50
2022-09-01T15:30:47.322Z,0.50
2022-09-01T15:33:16.348Z,0.80
2022-09-01T15:38:17.787Z,0.60
2022-09-01T15:40:57.164Z,0.70
2022-09-01T15:43:29.261Z,34.40
2022-09-01T15:45:59.103Z,14.60
2022-09-01T15:48:29.131Z,7.60
2022-09-01T15:51:22.745Z,24.30
2022-09-01T15:53:53.008Z,5.60
2022-09-01T15:56:22.021Z,28.30
2022-09-01T15:59:00.817Z,7.30
2022-09-01T16:01:33.800Z,4.50
2022-09-01T16:04:03.710Z,2.00
2022-09-01T16:06:35.145Z,0.90
2022-09-01T16:09:04.718Z,6.70
2022-09-01T16:11:33.068Z,2.80
2022-09-01T16:14:02.185Z,4.20
2022-09-01T16:16:48.815Z,5.80
2022-09-01T16:19:36.907Z,6.80
2022-09-01T16:22:08.232Z,2.70
2022-09-01T16:24:45.840Z,1.90
2022-09-01T16:27:21.308Z,1.40
2022-09-01T16:29:51.979Z,0.90
2022-09-01T16:32:22.287Z,1.70
2022-09-01T16:34:52.614Z,2.40
2022-09-01T16:37:36.338Z,3.50
2022-09-01T16:40:37.263Z,1.60
2022-09-01T16:43:20.919Z,1.60
2022-09-01T16:46:14.080Z,1.90
2022-09-01T16:48:48.330Z,5.40
2022-09-01T16:51:42.707Z,5.00
2022-09-01T16:54:26.322Z,4.20
2022-09-01T16:57:06.799Z,6.40
2022-09-01T16:59:55.459Z,4.40
2022-09-01T17:02:37.953Z,7.80
2022-09-01T17:05:12.812Z,3.50
2022-09-01T17:07:52.814Z,8.70
2022-09-01T17:10:37.419Z,6.00
2022-09-01T17:13:47.726Z,9.00
2022-09-01T17:16:29.386Z,6.60
2022-09-01T17:19:05.124Z,5.60
2022-09-01T17:21:48.609Z,9.70
2022-09-01T17:24:36.585Z,10.00
2022-09-01T17:27:28.437Z,9.10
2022-09-01T17:29:57.967Z,8.10
2022-09-01T17:32:56.579Z,17.90
2022-09-01T17:35:32.250Z,14.10
2022-09-01T17:38:30.295Z,11.70
2022-09-01T17:41:14.297Z,14.20
2022-09-01T17:44:13.355Z,9.10
2022-09-01T17:46:59.527Z,8.00
2022-09-01T17:49:59.579Z,4.80
2022-09-01T17:53:10.563Z,5.10
2022-09-01T17:55:51.719Z,1.90
2022-09-01T17:58:23.337Z,3.10
2022-09-01T18:01:10.065Z,1.80
2022-09-01T18:04:09.651Z,1.20
2022-09-01T18:07:05.271Z,1.70
2022-09-01T18:09:47.318Z,1.50
2022-09-01T18:12:21.369Z,1.40
2022-09-01T18:15:03.321Z,1.00
2022-09-01T18:17:56.299Z,1.00
2022-09-01T18:20:31.509Z,1.00
2022-09-01T18:23:09.173Z,2.20
2022-09-01T18:25:57.059Z,2.20
2022-09-01T18:28:27.699Z,2.10
2022-09-01T18:31:26.012Z,8.30
2022-09-01T18:34:00.457Z,3.30
2022-09-01T18:37:03.032Z,5.20
2022-09-01T18:39:54.120Z,15.30
2022-09-01T18:42:43.985Z,7.60
2022-09-01T18:45:40.711Z,5.70
2022-09-01T18:48:30.900Z,2.90
2022-09-01T18:51:26.718Z,3.40
2022-09-01T18:54:24.404Z,3.80
2022-09-01T18:57:03.083Z,6.90
2022-09-01T18:59:37.395Z,8.40
2022-09-01T19:02:21.082Z,7.40
2022-09-01T19:05:00.442Z,5.40
2022-09-01T19:07:53.445Z,5.20
2022-09-01T19:10:31.650Z,4.90
2022-09-01T19:13:34.118Z,3.60
2022-09-01T19:16:50.151Z,2.30
2022-09-01T19:19:37.420Z,1.20
2022-09-01T19:22:12.009Z,1.30
2022-09-01T19:28:18.129Z,1.00
2022-09-01T19:31:07.194Z,0.80
2022-09-01T19:34:19.606Z,1.10
2022-09-01T19:36:58.257Z,1.00
2022-09-01T19:39:50.877Z,1.30
2022-09-01T19:42:40.130Z,1.60
2022-09-01T19:45:27.468Z,2.80
2022-09-01T19:48:15.391Z,2.90
2022-09-01T19:51:09.234Z,3.50
2022-09-01T19:53:47.382Z,2.90
2022-09-01T19:56:32.230Z,2.50
2022-09-01T19:59:21.609Z,2.80
2022-09-01T20:04:58.700Z,3.00
2022-09-01T20:07:49.195Z,3.10
2022-09-01T20:10:56.616Z,2.90
2022-09-01T20:13:44.496Z,3.00
2022-09-01T20:16:31.420Z,4.30
2022-09-01T20:19:25.543Z,5.60
2022-09-01T20:21:54.189Z,7.60
2022-09-01T20:24:42.169Z,9.20
2022-09-01T20:27:41.296Z,11.40
2022-09-01T20:30:13.522Z,12.80
2022-09-01T20:32:57.513Z,7.80
2022-09-01T20:35:40.870Z,7.60
2022-09-01T20:38:53.761Z,9.20
2022-09-01T20:41:39.317Z,8.60
2022-09-01T20:44:26.853Z,9.00
2022-09-01T20:46:56.049Z,5.00
2022-09-01T20:49:31.629Z,4.60
2022-09-01T20:52:34.963Z,3.10
2022-09-01T20:55:43.284Z,3.00
2022-09-01T20:58:44.613Z,2.70
2022-09-01T21:01:37.750Z,3.30
2022-09-01T21:04:15.152Z,3.10
2022-09-01T21:07:22.101Z,3.20
2022-09-01T21:10:17.920Z,2.90
2022-09-01T21:13:39.022Z,3.00
2022-09-01T21:16:19.333Z,2.80
2022-09-01T21:19:05.022Z,3.00
2022-09-01T21:21:45.213Z,3.20
2022-09-01T21:24:13.514Z,3.90
2022-09-01T21:26:42.034Z,4.50
2022-09-01T21:29:20.461Z,4.00
2022-09-01T21:31:48.917Z,4.20
2022-09-01T21:34:17.356Z,6.20
2022-09-01T21:36:45.730Z,5.90
2022-09-01T21:39:14.857Z,5.70
2022-09-01T21:41:43.154Z,4.90
2022-09-01T21:44:11.753Z,4.10
2022-09-01T21:46:40.179Z,3.30
2022-09-01T21:49:08.585Z,2.80
2022-09-01T21:51:37.831Z,2.70
2022-09-01T21:54:06.228Z,2.50
2022-09-01T21:56:34.903Z,2.30
2022-09-01T21:59:03.187Z,2.30
2022-09-01T22:01:38.837Z,2.50
2022-09-01T22:04:07.240Z,2.90
2022-09-01T22:06:35.699Z,3.10
2022-09-01T22:09:07.653Z,2.60
2022-09-01T22:11:56.377Z,2.20
2022-09-01T22:14:34.855Z,2.30
2022-09-01T22:17:12.479Z,2.30
2022-09-01T22:19:40.955Z,2.20
2022-09-01T22:22:09.410Z,2.00
2022-09-01T22:24:37.902Z,2.40
2022-09-01T22:27:06.218Z,1.90
2022-09-01T22:29:34.531Z,2.70
2022-09-01T22:32:03.119Z,2.20
2022-09-01T22:34:34.752Z,2.10
2022-09-01T22:37:03.174Z,2.40
2022-09-01T22:39:31.609Z,2.10
2022-09-01T22:42:00.288Z,2.10
2022-09-01T22:44:29.041Z,1.90
2022-09-01T22:46:57.800Z,1.80
2022-09-01T22:49:26.083Z,2.00
2022-09-01T22:51:54.598Z,1.90
2022-09-01T22:54:23.280Z,2.10
2022-09-01T22:56:53.905Z,1.70
2022-09-01T22:59:24.780Z,1.80
2022-09-01T23:01:53.251Z,1.90
2022-09-01T23:04:23.469Z,1.90
2022-09-01T23:06:54.486Z,1.90
2022-09-01T23:09:23.435Z,2.10
2022-09-01T23:11:51.878Z,4.00
2022-09-01T23:14:20.182Z,5.60
2022-09-01T23:16:51.696Z,5.80
2022-09-01T23:19:22.053Z,4.90
2022-09-01T23:21:51.819Z,3.90
2022-09-01T23:26:49.996Z,3.00
2022-09-01T23:31:47.362Z,2.10
2022-09-01T23:34:16.940Z,2.20
2022-09-01T23:36:59.468Z,1.60
2022-09-01T23:39:37.349Z,1.90
2022-09-01T23:42:37.843Z,1.80
2022-09-01T23:45:19.152Z,2.00
2022-09-01T23:47:54.858Z,1.80
2022-09-01T23:50:27.261Z,2.00
2022-09-01T23:52:55.953Z,1.80
2022-09-01T23:55:24.391Z,1.90
2022-09-01T23:57:52.650Z,1.90
